Time;durP1;ratioP1;P1;durP2;ratioP2;P2;SDS_P1;SDS_P2;PMS_P1;PMS_P2;Temp;Humidity;BMP_temperature;BMP_pressure;BME280_temperature;BME280_humidity;BME280_pressure;Samples;Min_cycle;Max_cycle;Signal;HPM_P1;HPM_P2
2021/03/27 00:02:21;;;;;;;32.13;17.92;;;9.40;99.90;;;;;;5028766;28;20048;-70
2021/03/27 00:05:31;;;;;;;25.70;15.68;;;9.30;99.90;;;;;;5030214;28;20040;-69
2021/03/27 00:09:20;;;;;;;27.00;17.60;;;9.30;99.90;;;;;;5030743;28;20393;-69
2021/03/27 00:12:31;;;;;;;26.65;16.50;;;9.20;99.90;;;;;;4996835;28;20496;-69
2021/03/27 00:15:39;;;;;;;29.88;17.67;;;9.10;99.90;;;;;;5016880;28;20049;-70
2021/03/27 00:19:06;;;;;;;27.83;16.73;;;9.10;99.90;;;;;;5030853;28;20040;-69
2021/03/27 00:22:13;;;;;;;37.35;19.73;;;9.10;99.90;;;;;;5029188;28;20046;-69
2021/03/27 00:25:50;;;;;;;30.52;19.73;;;9.10;99.90;;;;;;5030295;28;20044;-69
2021/03/27 00:29:07;;;;;;;32.38;17.75;;;9.10;99.90;;;;;;5031372;28;20036;-69
2021/03/27 00:32:18;;;;;;;33.13;18.42;;;9.10;99.90;;;;;;5030657;28;20040;-69
2021/03/27 00:35:30;;;;;;;29.70;19.48;;;9.10;99.90;;;;;;5030445;28;20052;-69
2021/03/27 00:38:43;;;;;;;28.95;19.85;;;9.10;99.90;;;;;;5029685;28;20048;-69
2021/03/27 00:42:02;;;;;;;33.70;21.13;;;9.00;99.90;;;;;;5030384;28;20043;-70
2021/03/27 00:45:21;;;;;;;45.88;26.38;;;9.10;99.90;;;;;;5030376;28;20647;-69
2021/03/27 00:48:42;;;;;;;43.60;25.40;;;9.10;99.90;;;;;;5022026;28;20508;-69
2021/03/27 00:52:01;;;;;;;43.55;28.83;;;9.10;99.90;;;;;;5029235;28;20064;-69
2021/03/27 00:55:14;;;;;;;58.50;31.58;;;9.20;99.90;;;;;;5029509;28;20037;-69
2021/03/27 00:58:34;;;;;;;49.40;28.25;;;9.00;99.90;;;;;;5029703;28;20039;-69
2021/03/27 01:01:42;;;;;;;47.72;28.63;;;8.90;99.90;;;;;;5029311;28;20045;-69
2021/03/27 01:05:11;;;;;;;47.25;28.27;;;8.90;99.90;;;;;;5029571;28;20044;-69
2021/03/27 01:08:48;;;;;;;42.03;24.52;;;8.80;99.90;;;;;;5004446;28;20045;-69
2021/03/27 01:12:33;;;;;;;35.78;21.33;;;8.70;99.90;;;;;;4997127;28;20041;-69
2021/03/27 01:15:46;;;;;;;37.25;19.73;;;8.70;99.90;;;;;;5029893;28;20064;-69
2021/03/27 01:18:59;;;;;;;37.13;19.63;;;8.70;99.90;;;;;;5029157;28;20036;-69
2021/03/27 01:22:07;;;;;;;36.78;18.90;;;8.60;99.90;;;;;;5024548;28;20049;-69
2021/03/27 01:25:13;;;;;;;24.92;15.75;;;8.60;99.90;;;;;;5031752;28;20056;-69
2021/03/27 01:28:39;;;;;;;34.15;16.65;;;8.60;99.90;;;;;;5024894;28;20048;-69
2021/03/27 01:31:51;;;;;;;25.88;15.98;;;8.60;99.90;;;;;;5020913;28;20037;-69
2021/03/27 01:35:27;;;;;;;24.67;14.43;;;8.60;99.90;;;;;;5021992;28;20045;-69
2021/03/27 01:38:58;;;;;;;24.23;14.35;;;8.60;99.90;;;;;;5020496;28;20053;-69
2021/03/27 01:42:08;;;;;;;27.02;16.05;;;8.50;99.90;;;;;;5016428;28;20037;-69
2021/03/27 01:45:41;;;;;;;31.38;18.20;;;8.40;99.90;;;;;;5021394;28;20041;-69
2021/03/27 01:49:02;;;;;;;31.83;19.30;;;8.30;99.90;;;;;;5022459;28;20041;-69
2021/03/27 01:52:19;;;;;;;48.55;21.17;;;8.20;99.90;;;;;;5017899;28;20041;-69
2021/03/27 01:55:51;;;;;;;37.80;20.20;;;8.20;99.90;;;;;;5021275;28;20113;-70
2021/03/27 01:59:08;;;;;;;34.80;17.90;;;8.10;99.90;;;;;;5021744;28;20045;-70
2021/03/27 02:02:37;;;;;;;34.90;18.25;;;8.10;99.90;;;;;;5029455;28;20073;-69
2021/03/27 02:05:55;;;;;;;31.98;18.30;;;8.10;99.90;;;;;;5016020;28;20048;-69
2021/03/27 02:09:12;;;;;;;37.10;20.90;;;7.90;99.90;;;;;;5024185;28;20057;-69
2021/03/27 02:12:43;;;;;;;37.88;22.30;;;7.80;99.90;;;;;;5026868;28;20041;-70
2021/03/27 02:16:02;;;;;;;37.80;23.65;;;7.70;99.90;;;;;;5023026;28;20162;-70
2021/03/27 02:19:31;;;;;;;40.00;22.70;;;7.70;99.90;;;;;;5024496;28;20037;-70
2021/03/27 02:22:46;;;;;;;36.88;22.48;;;7.70;99.90;;;;;;5013598;28;20491;-69
2021/03/27 02:26:19;;;;;;;35.65;21.33;;;7.70;99.90;;;;;;5025709;28;20106;-69
2021/03/27 02:29:48;;;;;;;36.55;20.35;;;7.70;99.90;;;;;;5023695;28;20033;-69
2021/03/27 02:33:15;;;;;;;37.78;20.67;;;7.70;99.90;;;;;;5022519;28;20040;-70
2021/03/27 02:36:42;;;;;;;35.60;19.10;;;7.70;99.90;;;;;;5025555;28;20049;-69
2021/03/27 02:40:10;;;;;;;37.95;21.20;;;7.60;99.90;;;;;;5023299;28;20044;-69
2021/03/27 02:43:28;;;;;;;39.75;21.63;;;7.60;99.90;;;;;;5031726;28;20041;-70
2021/03/27 02:46:44;;;;;;;39.92;24.73;;;7.70;99.90;;;;;;5030646;28;20044;-69
2021/03/27 02:50:03;;;;;;;49.17;29.25;;;7.70;99.90;;;;;;5026502;28;20593;-70
2021/03/27 02:53:16;;;;;;;54.17;32.05;;;7.70;99.90;;;;;;5026583;28;20044;-69
2021/03/27 02:56:54;;;;;;;56.65;34.45;;;7.60;99.90;;;;;;5018529;28;20683;-68
2021/03/27 03:00:23;;;;;;;73.97;41.17;;;7.50;99.90;;;;;;5031762;28;20045;-69
2021/03/27 03:03:46;;;;;;;72.03;39.22;;;7.40;99.90;;;;;;5029321;28;20036;-69
2021/03/27 03:07:14;;;;;;;66.25;39.70;;;7.30;99.90;;;;;;5020733;28;20043;-69
2021/03/27 03:10:40;;;;;;;65.10;40.08;;;7.30;99.90;;;;;;5030175;28;20045;-69
2021/03/27 03:14:07;;;;;;;70.95;40.38;;;7.20;99.90;;;;;;5031717;28;20483;-70
2021/03/27 03:17:33;;;;;;;60.47;38.47;;;7.30;99.90;;;;;;5022437;28;20495;-69
2021/03/27 03:20:58;;;;;;;62.40;39.17;;;7.40;99.90;;;;;;5032276;28;20515;-70
2021/03/27 03:24:35;;;;;;;56.88;35.08;;;7.50;99.90;;;;;;5031426;28;20514;-70
2021/03/27 03:27:52;;;;;;;58.70;35.85;;;7.60;99.90;;;;;;5024948;28;20052;-69
2021/03/27 03:31:10;;;;;;;56.55;33.80;;;7.70;99.90;;;;;;5031992;28;20048;-69
2021/03/27 03:34:36;;;;;;;54.13;33.83;;;7.80;99.90;;;;;;5031635;28;20427;-69
2021/03/27 03:37:58;;;;;;;56.47;34.15;;;7.90;99.90;;;;;;5022153;28;20052;-69
2021/03/27 03:41:06;;;;;;;55.05;33.40;;;8.00;99.90;;;;;;5023048;28;20069;-69
2021/03/27 03:44:49;;;;;;;54.08;29.95;;;8.00;99.90;;;;;;5019672;28;20377;-69
2021/03/27 03:48:33;;;;;;;47.35;26.58;;;8.00;99.90;;;;;;5031721;28;20052;-69
2021/03/27 03:51:46;;;;;;;42.33;22.83;;;8.00;99.90;;;;;;5030690;28;20408;-69
2021/03/27 03:55:02;;;;;;;34.78;21.00;;;8.10;99.90;;;;;;5023204;28;20048;-69
2021/03/27 03:58:30;;;;;;;35.92;19.27;;;8.20;99.90;;;;;;5031174;28;20052;-68
2021/03/27 04:01:37;;;;;;;32.25;19.85;;;8.30;99.90;;;;;;5022055;28;20045;-69
2021/03/27 04:04:54;;;;;;;36.60;18.95;;;8.40;99.90;;;;;;5031271;28;20055;-68
2021/03/27 04:08:43;;;;;;;33.38;20.08;;;8.60;99.90;;;;;;5030319;28;20052;-70
2021/03/27 04:12:11;;;;;;;36.92;18.25;;;8.70;99.90;;;;;;5016271;28;20048;-69
2021/03/27 04:15:25;;;;;;;40.63;18.90;;;8.90;99.90;;;;;;5030237;28;20587;-69
2021/03/27 04:18:51;;;;;;;34.17;18.08;;;9.10;99.90;;;;;;5031529;28;20036;-70
2021/03/27 04:22:18;;;;;;;34.63;17.75;;;9.20;99.90;;;;;;5021162;28;20052;-70
2021/03/27 04:25:36;;;;;;;30.75;17.63;;;9.30;99.90;;;;;;5029881;28;20040;-69
2021/03/27 04:28:50;;;;;;;34.60;17.42;;;9.40;99.90;;;;;;5022836;28;20068;-69
2021/03/27 04:32:32;;;;;;;28.42;15.77;;;9.50;99.90;;;;;;5027688;28;20040;-69
2021/03/27 04:36:16;;;;;;;37.63;17.23;;;9.70;99.90;;;;;;5029587;28;20040;-69
2021/03/27 04:39:39;;;;;;;27.70;15.50;;;9.70;99.90;;;;;;5024808;28;20048;-69
2021/03/27 04:42:50;;;;;;;25.48;14.27;;;9.80;99.90;;;;;;5024990;28;20040;-69
2021/03/27 04:46:33;;;;;;;29.95;15.35;;;9.80;99.90;;;;;;5029487;28;20049;-69
2021/03/27 04:50:03;;;;;;;22.55;12.38;;;9.90;99.90;;;;;;5021502;28;20056;-69
2021/03/27 04:53:50;;;;;;;24.08;12.20;;;9.90;99.90;;;;;;5029898;28;20049;-69
2021/03/27 04:57:15;;;;;;;22.65;12.30;;;10.00;99.90;;;;;;4989321;28;20053;-69
2021/03/27 05:00:44;;;;;;;25.23;11.52;;;10.10;99.90;;;;;;5034759;28;20656;-70
2021/03/27 05:04:07;;;;;;;18.13;11.50;;;10.10;99.90;;;;;;5034711;28;20045;-70
2021/03/27 05:07:19;;;;;;;20.13;11.45;;;10.10;99.90;;;;;;5033213;28;20056;-69
2021/03/27 05:10:39;;;;;;;17.67;11.13;;;10.10;99.90;;;;;;5035408;28;20060;-69
2021/03/27 05:14:09;;;;;;;32.17;11.27;;;10.20;99.90;;;;;;5022099;28;20057;-69
2021/03/27 05:17:52;;;;;;;24.13;9.30;;;10.20;99.90;;;;;;5026946;28;20044;-69
2021/03/27 05:21:25;;;;;;;12.80;9.20;;;10.30;99.90;;;;;;5034243;28;20053;-69
2021/03/27 05:25:07;;;;;;;20.33;10.13;;;10.30;99.90;;;;;;5034219;28;20492;-69
2021/03/27 05:28:36;;;;;;;33.05;20.20;;;10.40;99.90;;;;;;5033790;28;20392;-70
2021/03/27 05:31:43;;;;;;;36.80;24.05;;;9.90;99.90;;;;;;5033940;28;20048;-70
2021/03/27 05:34:52;;;;;;;40.53;26.23;;;9.10;99.90;;;;;;5034368;28;20068;-70
2021/03/27 05:38:21;;;;;;;37.97;24.35;;;8.70;99.90;;;;;;5033125;28;20494;-70
2021/03/27 05:41:26;;;;;;;42.25;25.33;;;8.40;99.90;;;;;;5034091;28;20048;-69
2021/03/27 05:44:46;;;;;;;34.90;22.42;;;8.50;99.90;;;;;;5033900;28;20044;-69
2021/03/27 05:48:18;;;;;;;41.90;25.45;;;8.60;99.90;;;;;;5024006;28;20404;-69
2021/03/27 05:51:44;;;;;;;45.35;27.23;;;8.40;99.90;;;;;;5023831;28;20582;-69
2021/03/27 05:55:13;;;;;;;43.10;27.08;;;8.30;99.90;;;;;;5033650;28;20388;-69
2021/03/27 05:58:37;;;;;;;45.78;26.10;;;8.00;99.90;;;;;;5020611;28;20049;-69
2021/03/27 06:02:13;;;;;;;41.45;25.13;;;8.00;99.90;;;;;;5025407;28;20361;-70
2021/03/27 06:05:42;;;;;;;43.03;24.83;;;8.00;99.90;;;;;;5033076;28;20080;-70
2021/03/27 06:08:55;;;;;;;44.65;27.80;;;8.10;99.90;;;;;;5027790;28;20523;-69
2021/03/27 06:12:25;;;;;;;40.38;24.73;;;8.10;99.90;;;;;;5033621;28;20056;-70
2021/03/27 06:16:03;;;;;;;38.20;23.05;;;8.20;99.90;;;;;;5032283;28;20052;-70
2021/03/27 06:19:30;;;;;;;41.85;24.98;;;8.40;99.90;;;;;;5029310;28;20395;-69
2021/03/27 06:23:21;;;;;;;40.78;24.27;;;8.50;99.90;;;;;;5031819;28;20049;-69
2021/03/27 06:26:28;;;;;;;35.80;21.30;;;8.70;99.90;;;;;;5031825;28;20400;-69
2021/03/27 06:29:56;;;;;;;32.40;18.48;;;9.00;99.90;;;;;;5032826;28;20037;-69
2021/03/27 06:33:18;;;;;;;28.98;19.38;;;9.30;99.90;;;;;;5025857;28;20029;-69
2021/03/27 06:36:28;;;;;;;33.80;21.13;;;9.50;99.90;;;;;;5019826;28;20117;-69
2021/03/27 06:39:57;;;;;;;33.97;20.88;;;9.00;99.90;;;;;;5029376;28;20527;-69
2021/03/27 06:43:30;;;;;;;38.33;21.35;;;9.00;99.90;;;;;;5027010;28;20492;-69
2021/03/27 06:46:53;;;;;;;35.80;21.63;;;9.30;99.90;;;;;;5028869;28;20052;-69
2021/03/27 06:50:33;;;;;;;37.75;22.88;;;9.50;99.90;;;;;;5031766;28;20048;-69
2021/03/27 06:53:53;;;;;;;35.78;19.85;;;9.40;99.90;;;;;;5032313;28;20044;-70
2021/03/27 06:57:10;;;;;;;33.85;19.90;;;9.50;99.90;;;;;;5031057;28;20053;-70
2021/03/27 07:00:49;;;;;;;33.75;20.15;;;9.60;99.90;;;;;;5023057;28;20048;-69
2021/03/27 07:04:13;;;;;;;33.78;20.23;;;9.70;99.90;;;;;;4992258;28;20052;-70
2021/03/27 07:07:34;;;;;;;27.02;17.38;;;9.70;99.90;;;;;;5028315;28;20049;-70
2021/03/27 07:11:09;;;;;;;29.15;17.42;;;10.00;99.90;;;;;;5029058;28;20380;-69
2021/03/27 07:14:49;;;;;;;23.80;15.82;;;10.20;99.90;;;;;;5029626;28;20040;-69
2021/03/27 07:18:14;;;;;;;30.50;16.63;;;10.30;99.90;;;;;;5028154;28;20048;-69
2021/03/27 07:21:34;;;;;;;30.23;16.08;;;10.40;99.90;;;;;;5022870;28;20045;-69
2021/03/27 07:25:04;;;;;;;26.27;16.33;;;10.50;99.90;;;;;;5026109;28;20049;-70
2021/03/27 07:28:23;;;;;;;29.95;17.42;;;10.60;99.90;;;;;;5030767;28;20527;-69
2021/03/27 07:31:34;;;;;;;30.02;19.50;;;10.60;99.90;;;;;;5024267;28;20052;-69
2021/03/27 07:35:13;;;;;;;30.75;17.85;;;10.20;99.90;;;;;;5023465;28;20480;-70
2021/03/27 07:38:35;;;;;;;26.55;15.13;;;10.50;99.90;;;;;;5018503;28;20048;-69
2021/03/27 07:41:46;;;;;;;22.67;13.40;;;10.90;99.90;;;;;;5015110;28;20057;-68
2021/03/27 07:45:44;;;;;;;24.15;12.35;;;11.30;99.90;;;;;;5021383;28;20052;-69
2021/03/27 07:49:17;;;;;;;19.60;11.35;;;12.10;99.90;;;;;;4968960;28;20040;-69
2021/03/27 07:52:35;;;;;;;16.65;8.65;;;12.70;99.90;;;;;;5029431;28;20041;-70
2021/03/27 07:56:03;;;;;;;18.38;10.07;;;12.80;99.90;;;;;;5030542;28;20036;-70
2021/03/27 07:59:37;;;;;;;13.15;8.27;;;12.90;99.90;;;;;;5030596;28;20120;-70
2021/03/27 08:03:05;;;;;;;15.80;8.13;;;13.00;99.90;;;;;;5022869;28;21020;-70
2021/03/27 08:06:29;;;;;;;19.83;10.30;;;12.90;99.90;;;;;;5021025;28;20049;-70
2021/03/27 08:09:57;;;;;;;17.83;10.80;;;12.70;99.90;;;;;;5024580;28;20381;-70
2021/03/27 08:13:21;;;;;;;19.20;10.15;;;12.50;99.90;;;;;;5022727;28;20052;-69
2021/03/27 08:16:44;;;;;;;15.75;9.93;;;12.50;99.90;;;;;;5022891;28;20389;-70
2021/03/27 08:20:26;;;;;;;17.20;8.93;;;13.40;99.90;;;;;;5021952;28;20064;-69
2021/03/27 08:23:59;;;;;;;14.65;8.50;;;15.50;99.90;;;;;;5024099;28;20037;-70
2021/03/27 08:27:17;;;;;;;17.58;8.18;;;16.90;99.90;;;;;;5025549;28;20125;-69
2021/03/27 08:30:55;;;;;;;15.98;6.32;;;17.90;99.90;;;;;;5025219;28;20503;-69
2021/03/27 08:34:06;;;;;;;14.00;7.03;;;19.50;99.90;;;;;;5026659;28;20117;-70
2021/03/27 08:37:47;;;;;;;17.45;7.47;;;18.60;99.90;;;;;;5022041;28;20048;-70
2021/03/27 08:41:21;;;;;;;13.73;6.43;;;16.30;99.90;;;;;;5026833;28;20052;-70
2021/03/27 08:44:33;;;;;;;18.92;6.80;;;17.70;99.90;;;;;;5028011;28;20052;-70
2021/03/27 08:48:18;;;;;;;12.15;5.40;;;19.40;99.90;;;;;;5029978;28;20060;-69
2021/03/27 08:51:28;;;;;;;10.77;5.00;;;18.50;99.90;;;;;;5029802;28;20078;-69
2021/03/27 08:54:51;;;;;;;12.90;5.63;;;18.90;99.90;;;;;;5030877;28;20036;-69
2021/03/27 08:58:40;;;;;;;17.40;6.82;;;19.50;99.90;;;;;;5020142;28;20491;-70
2021/03/27 09:02:04;;;;;;;12.73;5.82;;;19.50;99.90;;;;;;5030181;28;20142;-69
2021/03/27 09:05:31;;;;;;;12.75;5.28;;;16.60;99.90;;;;;;5030139;28;20056;-69
2021/03/27 09:08:36;;;;;;;10.77;4.97;;;18.00;99.90;;;;;;5022830;28;20049;-69
2021/03/27 09:12:10;;;;;;;10.70;4.93;;;18.10;99.90;;;;;;5030136;28;20052;-69
2021/03/27 09:15:42;;;;;;;10.15;5.22;;;18.70;99.90;;;;;;5021049;28;20044;-69
2021/03/27 09:19:16;;;;;;;11.98;5.45;;;17.90;99.90;;;;;;5022829;28;20075;-70
2021/03/27 09:22:46;;;;;;;11.85;5.68;;;17.40;99.90;;;;;;5023787;28;20052;-70
2021/03/27 09:26:11;;;;;;;13.43;5.50;;;18.80;99.90;;;;;;5029382;28;20491;-71
2021/03/27 09:29:44;;;;;;;8.27;4.60;;;19.80;99.90;;;;;;5029675;28;20396;-69
2021/03/27 09:33:25;;;;;;;13.10;5.68;;;20.80;98.30;;;;;;5029747;28;20045;-69
2021/03/27 09:36:35;;;;;;;11.95;5.18;;;19.70;99.90;;;;;;5010153;28;20044;-69
2021/03/27 09:40:10;;;;;;;7.82;5.10;;;19.70;99.90;;;;;;5029600;28;20032;-69
2021/03/27 09:43:39;;;;;;;14.70;5.95;;;19.50;99.90;;;;;;5030117;28;20117;-68
2021/03/27 09:47:02;;;;;;;12.43;4.72;;;20.10;99.90;;;;;;5032919;28;20043;-70
2021/03/27 09:50:34;;;;;;;11.90;4.30;;;23.40;96.50;;;;;;5033521;28;20499;-70
2021/03/27 09:54:00;;;;;;;10.27;4.20;;;23.10;94.80;;;;;;5033145;28;20041;-70
2021/03/27 09:57:23;;;;;;;10.68;4.40;;;24.70;93.70;;;;;;5032355;28;20040;-70
2021/03/27 10:01:05;;;;;;;8.02;4.20;;;25.40;92.20;;;;;;5033061;28;20056;-69
2021/03/27 10:04:22;;;;;;;10.43;4.53;;;23.50;93.30;;;;;;5033406;28;20068;-70
2021/03/27 10:07:37;;;;;;;17.67;5.53;;;19.50;98.00;;;;;;5031942;28;20064;-70
2021/03/27 10:11:19;;;;;;;6.93;4.20;;;18.90;99.20;;;;;;5029555;28;20045;-69
2021/03/27 10:14:31;;;;;;;9.23;3.80;;;21.20;96.60;;;;;;5011049;28;20041;-69
2021/03/27 10:17:41;;;;;;;7.88;3.78;;;22.50;93.90;;;;;;5029864;28;20040;-69
2021/03/27 10:20:54;;;;;;;6.20;3.30;;;24.60;91.50;;;;;;5032814;28;20045;-70
2021/03/27 10:24:26;;;;;;;9.20;4.05;;;23.80;91.50;;;;;;5033259;28;20859;-69
2021/03/27 10:27:43;;;;;;;10.27;5.13;;;20.60;94.40;;;;;;5027619;28;20506;-69
2021/03/27 10:30:58;;;;;;;7.95;4.15;;;20.30;93.80;;;;;;5032037;28;20052;-69
2021/03/27 10:34:17;;;;;;;13.50;4.32;;;20.60;94.80;;;;;;5024770;28;20060;-69
2021/03/27 10:37:42;;;;;;;12.95;4.53;;;19.00;96.40;;;;;;5023328;28;20068;-70
2021/03/27 10:41:00;;;;;;;11.15;4.93;;;17.80;99.50;;;;;;5024423;28;20079;-70
2021/03/27 10:44:34;;;;;;;8.57;4.72;;;16.60;99.90;;;;;;5031349;28;20033;-69
2021/03/27 10:48:03;;;;;;;8.60;4.10;;;16.60;99.90;;;;;;5022407;28;20048;-69
2021/03/27 10:51:31;;;;;;;7.10;4.18;;;17.40;99.90;;;;;;5022490;28;20064;-70
2021/03/27 10:54:46;;;;;;;8.52;4.75;;;18.10;99.90;;;;;;5031570;28;20045;-69
2021/03/27 10:58:11;;;;;;;8.20;3.72;;;19.40;97.90;;;;;;5020425;28;20841;-69
2021/03/27 11:01:51;;;;;;;7.53;3.78;;;22.40;95.50;;;;;;5019533;28;20036;-69
2021/03/27 11:05:04;;;;;;;8.80;3.83;;;26.00;88.80;;;;;;5026777;28;20049;-71
2021/03/27 11:08:30;;;;;;;12.35;4.90;;;25.60;88.40;;;;;;5027241;28;20044;-69
2021/03/27 11:11:34;;;;;;;6.45;3.45;;;22.50;90.30;;;;;;5030794;28;20049;-69
2021/03/27 11:15:06;;;;;;;8.63;3.42;;;21.90;91.10;;;;;;5031426;28;20052;-69
2021/03/27 11:18:21;;;;;;;7.35;3.45;;;22.50;91.10;;;;;;5031003;28;20388;-69
2021/03/27 11:21:57;;;;;;;7.53;3.08;;;23.00;88.70;;;;;;5024366;28;20049;-70
2021/03/27 11:25:36;;;;;;;6.32;2.60;;;23.80;89.60;;;;;;5028026;28;20040;-70
2021/03/27 11:29:06;;;;;;;8.15;3.33;;;21.60;90.30;;;;;;5028671;28;20049;-70
2021/03/27 11:32:16;;;;;;;9.40;3.78;;;21.90;89.20;;;;;;5026451;28;20044;-69
2021/03/27 11:35:35;;;;;;;7.38;2.97;;;21.80;90.60;;;;;;5028721;28;20044;-70
2021/03/27 11:39:01;;;;;;;6.20;3.35;;;21.10;90.70;;;;;;5028705;28;20036;-69
2021/03/27 11:42:20;;;;;;;6.50;3.40;;;22.30;90.70;;;;;;5025826;28;20380;-70
2021/03/27 11:45:49;;;;;;;8.45;3.03;;;19.80;91.30;;;;;;5028802;28;20040;-70
2021/03/27 11:49:04;;;;;;;5.45;3.00;;;21.00;90.90;;;;;;5005646;28;20048;-70
2021/03/27 11:52:22;;;;;;;8.00;3.22;;;20.50;91.50;;;;;;5018390;28;20056;-70
2021/03/27 11:56:02;;;;;;;6.50;2.80;;;20.00;92.90;;;;;;5019121;28;20049;-69
2021/03/27 11:59:42;;;;;;;8.05;3.60;;;20.20;93.10;;;;;;5000270;28;20053;-69
2021/03/27 12:02:58;;;;;;;8.65;2.90;;;19.40;92.80;;;;;;5008912;28;20949;-68
2021/03/27 12:06:33;;;;;;;7.90;2.85;;;20.50;91.10;;;;;;5022671;28;20040;-69
2021/03/27 12:09:53;;;;;;;9.95;2.78;;;21.60;90.90;;;;;;5021909;28;20056;-68
2021/03/27 12:13:09;;;;;;;6.60;3.10;;;18.70;92.50;;;;;;5012040;28;20499;-70
2021/03/27 12:16:31;;;;;;;11.05;3.65;;;18.70;94.70;;;;;;5018226;28;20048;-69
2021/03/27 12:19:47;;;;;;;5.05;2.85;;;19.60;92.80;;;;;;5024510;28;20056;-66
2021/03/27 12:23:15;;;;;;;8.90;3.33;;;18.80;94.40;;;;;;5013439;28;20061;-71
2021/03/27 12:26:27;;;;;;;7.32;3.00;;;18.10;94.90;;;;;;5020243;28;20040;-69
2021/03/27 12:29:37;;;;;;;9.32;3.33;;;17.20;96.50;;;;;;5023036;28;20064;-68
2021/03/27 12:33:06;;;;;;;6.35;3.15;;;17.30;96.50;;;;;;5022595;28;20040;-70
2021/03/27 12:36:21;;;;;;;5.55;2.55;;;17.60;96.60;;;;;;5018754;28;20055;-69
2021/03/27 12:40:01;;;;;;;11.50;3.65;;;18.20;96.00;;;;;;5024101;28;20069;-69
2021/03/27 12:43:10;;;;;;;6.90;2.83;;;17.80;96.20;;;;;;5022475;28;20056;-69
2021/03/27 12:46:34;;;;;;;6.07;2.90;;;17.80;96.40;;;;;;5019477;28;20045;-70
2021/03/27 12:50:15;;;;;;;5.47;3.10;;;18.50;95.60;;;;;;5023375;28;20061;-69
2021/03/27 12:53:47;;;;;;;5.75;2.90;;;18.00;96.10;;;;;;5022601;28;20048;-69
2021/03/27 12:56:54;;;;;;;9.20;3.65;;;17.50;96.60;;;;;;5018203;28;20076;-69
2021/03/27 13:00:38;;;;;;;6.82;2.88;;;17.60;97.00;;;;;;5023438;28;20056;-70
2021/03/27 13:04:01;;;;;;;7.45;3.17;;;17.40;97.50;;;;;;5021512;28;20041;-69
2021/03/27 13:07:37;;;;;;;8.30;3.25;;;18.30;96.70;;;;;;5018240;28;20119;-69
2021/03/27 13:11:05;;;;;;;7.07;4.20;;;18.30;96.60;;;;;;5022738;28;20060;-70
2021/03/27 13:14:48;;;;;;;8.40;3.67;;;18.90;95.50;;;;;;5020795;28;20051;-69
2021/03/27 13:18:00;;;;;;;7.60;2.80;;;18.90;95.50;;;;;;5020565;28;20103;-69
2021/03/27 13:21:08;;;;;;;6.53;3.20;;;18.60;95.00;;;;;;5025132;28;20039;-69
2021/03/27 13:24:24;;;;;;;7.55;3.38;;;18.50;95.60;;;;;;5024813;28;20041;-69
2021/03/27 13:27:45;;;;;;;6.50;3.35;;;17.80;96.70;;;;;;5024014;28;20040;-68
2021/03/27 13:30:55;;;;;;;5.38;3.13;;;17.50;97.70;;;;;;5026663;28;20052;-70
2021/03/27 13:34:05;;;;;;;6.85;2.67;;;18.20;97.90;;;;;;5025746;28;20057;-70
2021/03/27 13:37:21;;;;;;;3.75;2.30;;;18.90;96.00;;;;;;5021290;28;20045;-70
2021/03/27 13:40:32;;;;;;;7.00;2.85;;;19.50;95.30;;;;;;5024845;28;20044;-69
2021/03/27 13:43:51;;;;;;;10.70;3.03;;;18.90;95.10;;;;;;5023483;28;20040;-68
2021/03/27 13:47:01;;;;;;;5.55;2.47;;;20.30;94.20;;;;;;5009050;28;20045;-69
2021/03/27 13:50:13;;;;;;;10.60;3.85;;;20.80;92.10;;;;;;5023141;28;20050;-69
2021/03/27 13:53:18;;;;;;;7.68;4.20;;;20.40;92.50;;;;;;5022965;28;20060;-69
2021/03/27 13:56:28;;;;;;;28.40;16.60;;;20.70;92.70;;;;;;5015727;28;20261;-69
2021/03/27 14:00:05;;;;;;;35.88;22.08;;;20.10;92.20;;;;;;5025679;28;20501;-69
2021/03/27 14:03:43;;;;;;;19.23;13.07;;;19.60;93.00;;;;;;5022488;28;20052;-69
2021/03/27 14:07:02;;;;;;;21.08;12.27;;;19.30;93.20;;;;;;5008973;28;20029;-70
2021/03/27 14:10:30;;;;;;;5.95;2.88;;;18.90;93.10;;;;;;5025318;28;20510;-69
2021/03/27 14:14:04;;;;;;;10.25;3.50;;;18.20;93.90;;;;;;5021194;28;20056;-70
2021/03/27 14:17:45;;;;;;;17.23;7.35;;;17.60;95.60;;;;;;5010929;28;20408;-69
2021/03/27 14:21:12;;;;;;;12.50;7.93;;;18.00;94.90;;;;;;5026858;28;20403;-70
2021/03/27 14:24:51;;;;;;;10.65;5.25;;;18.30;94.00;;;;;;5030119;28;20068;-69
2021/03/27 14:28:17;;;;;;;14.27;8.10;;;18.20;93.70;;;;;;5028345;28;20388;-69
2021/03/27 14:31:44;;;;;;;25.27;15.10;;;18.10;94.00;;;;;;5023655;28;20419;-70
2021/03/27 14:35:23;;;;;;;16.58;6.90;;;18.00;94.10;;;;;;5006389;28;20055;-69
2021/03/27 14:38:58;;;;;;;31.75;17.40;;;18.30;94.60;;;;;;5013269;28;20063;-69
2021/03/27 14:42:30;;;;;;;10.57;6.20;;;18.50;94.50;;;;;;5021032;28;20056;-70
2021/03/27 14:46:08;;;;;;;7.05;3.95;;;18.70;94.50;;;;;;5025435;28;20052;-69
2021/03/27 14:49:46;;;;;;;9.50;4.57;;;18.60;94.00;;;;;;5022106;28;20045;-69
2021/03/27 14:52:56;;;;;;;11.82;5.30;;;18.40;94.90;;;;;;5012242;28;20505;-69
2021/03/27 14:56:05;;;;;;;14.27;7.85;;;18.50;94.80;;;;;;5025526;28;20052;-69
2021/03/27 14:59:41;;;;;;;17.10;7.43;;;18.40;94.60;;;;;;5024604;28;20052;-69
2021/03/27 15:03:17;;;;;;;9.25;5.50;;;18.30;95.00;;;;;;5015920;28;20033;-69
2021/03/27 15:06:51;;;;;;;13.82;5.70;;;18.00;95.00;;;;;;5024015;28;20574;-70
2021/03/27 15:10:38;;;;;;;10.68;3.10;;;18.10;96.20;;;;;;5024337;28;20412;-69
2021/03/27 15:13:50;;;;;;;9.13;3.30;;;18.00;95.60;;;;;;4968024;28;20057;-69
2021/03/27 15:17:03;;;;;;;;;;;17.90;96.40;;;;;;5023420;28;20044;-70
2021/03/27 15:20:50;;;;;;;17.42;4.47;;;17.90;96.40;;;;;;5023764;28;19920;-70
2021/03/27 15:24:07;;;;;;;11.25;5.35;;;18.10;96.80;;;;;;5020518;28;20399;-69
2021/03/27 15:27:16;;;;;;;11.75;5.95;;;18.00;97.00;;;;;;5022170;28;20052;-69
2021/03/27 15:30:33;;;;;;;20.90;10.40;;;17.90;95.90;;;;;;5025920;28;20043;-69
2021/03/27 15:34:10;;;;;;;24.35;11.35;;;17.60;96.70;;;;;;5028765;28;20044;-69
2021/03/27 15:37:27;;;;;;;7.25;3.90;;;17.40;97.10;;;;;;5027000;28;20653;-68
2021/03/27 15:40:36;;;;;;;11.52;6.43;;;17.20;97.00;;;;;;5030460;28;20028;-68
2021/03/27 15:43:48;;;;;;;13.02;3.88;;;17.10;97.70;;;;;;5026095;28;20480;-68
2021/03/27 15:46:56;;;;;;;13.85;6.30;;;17.10;98.80;;;;;;5013643;28;20048;-68
2021/03/27 15:50:21;;;;;;;14.50;6.57;;;17.00;99.20;;;;;;5023046;28;20064;-69
2021/03/27 15:53:48;;;;;;;10.80;4.55;;;16.90;99.80;;;;;;5021604;28;20047;-68
2021/03/27 15:57:30;;;;;;;13.50;4.50;;;16.70;99.90;;;;;;5015475;28;20832;-69
2021/03/27 16:00:44;;;;;;;10.45;4.70;;;16.70;99.90;;;;;;5024260;28;20056;-69
2021/03/27 16:04:12;;;;;;;10.52;3.78;;;16.60;99.90;;;;;;5021478;28;20040;-68
2021/03/27 16:07:22;;;;;;;7.18;3.85;;;16.60;99.90;;;;;;5018150;28;20044;-69
2021/03/27 16:10:34;;;;;;;8.88;4.22;;;16.60;99.90;;;;;;5024532;28;20052;-69
2021/03/27 16:13:59;;;;;;;7.95;4.00;;;16.60;99.90;;;;;;5024336;28;20631;-68
2021/03/27 16:17:22;;;;;;;7.88;4.57;;;16.60;99.90;;;;;;5021634;28;20056;-69
2021/03/27 16:20:43;;;;;;;9.27;4.30;;;16.40;99.90;;;;;;5022885;28;20392;-70
2021/03/27 16:24:09;;;;;;;7.35;4.57;;;16.30;99.90;;;;;;5023631;28;20052;-70
2021/03/27 16:27:30;;;;;;;12.20;4.90;;;16.10;99.90;;;;;;5015915;28;20044;-69
2021/03/27 16:30:38;;;;;;;10.30;5.35;;;16.00;99.90;;;;;;5024295;28;20060;-69
2021/03/27 16:34:16;;;;;;;11.73;4.57;;;15.90;99.90;;;;;;5023273;28;20048;-69
2021/03/27 16:37:28;;;;;;;10.10;4.47;;;15.80;99.90;;;;;;5011295;28;20044;-69
2021/03/27 16:40:42;;;;;;;11.68;5.78;;;15.70;99.90;;;;;;5021025;28;20064;-69
2021/03/27 16:44:06;;;;;;;12.82;7.60;;;15.60;99.90;;;;;;5021921;28;20747;-68
2021/03/27 16:47:13;;;;;;;15.75;7.07;;;15.50;99.90;;;;;;5012238;28;20052;-69
2021/03/27 16:50:27;;;;;;;20.67;9.90;;;15.40;99.90;;;;;;5021379;28;20128;-69
2021/03/27 16:53:54;;;;;;;17.95;8.38;;;15.40;99.90;;;;;;5020289;28;20056;-70
2021/03/27 16:57:24;;;;;;;15.30;6.97;;;15.30;99.90;;;;;;5012669;28;20057;-68
2021/03/27 17:01:18;;;;;;;13.07;7.32;;;15.30;99.90;;;;;;5018571;28;20040;-69
2021/03/27 17:04:45;;;;;;;16.05;9.55;;;15.30;99.90;;;;;;4995738;28;20052;-70
2021/03/27 17:08:05;;;;;;;15.73;8.35;;;15.30;99.90;;;;;;4986734;28;20052;-69
2021/03/27 17:11:20;;;;;;;14.00;6.60;;;15.30;99.90;;;;;;5024693;28;20048;-69
2021/03/27 17:14:40;;;;;;;15.38;6.97;;;15.20;99.90;;;;;;5021234;28;20045;-69
2021/03/27 17:18:14;;;;;;;14.45;7.28;;;15.20;99.90;;;;;;5016393;28;20048;-69
2021/03/27 17:21:41;;;;;;;13.90;6.10;;;15.10;99.90;;;;;;5021572;28;20056;-70
2021/03/27 17:24:55;;;;;;;16.98;7.07;;;15.10;99.90;;;;;;5016556;28;20036;-69
2021/03/27 17:28:36;;;;;;;23.63;7.25;;;15.10;99.90;;;;;;5020345;28;20056;-69
2021/03/27 17:32:00;;;;;;;13.18;6.30;;;15.00;99.90;;;;;;5021433;28;20053;-69